Hlavní strana
METAR-TAF:

METAR-TAF

Letiště :

Gabès, Tunisko

zeměpisná šířka: 33-53N, zeměpisná délka: 010-06E, výška: 4 m

Aktuální stav počasí

Zpráva byla vytvořena před 56 minutami, v 07:00 UTC
Východní vítr 12 kt
Teplota 16°C
Vlhkost vzduchu 100%
Tlak 1019 hPa
Viditelnost: 4000 m
Skoro jasno ve výšce 2000 ft
Polojasno ve výšce 3000 ft
kouřmo

METAR: DTTG 080700Z 08012KT 4000 BR FEW020 SCT030 16/16 Q1019 NOSIG

Čas: 08:56 (07:56 UTC)

Předpověď počasí

Zpráva byla vytvořena před 4 hodinami a 56 minutami, v 03:00 UTC
Předpověď platná od 08 v 04 UTC do 08 v 13 UTC
Východní vítr 8 kt
Viditelnost: 3000 m
Skoro jasno ve výšce 2000 ft
kouřmo
Pravděpodobnost 40% :
Dočasný
od 08 v 05 UTC do 08 v 07 UTC
vítr z různých směrů 2 kt
Viditelnost: 0800 m
Skoro jasno ve výšce 1400 ft
mlha

TAF: DTTG 080300Z 0804/0813 10008KT 3000 BR FEW020 PROB40 TEMPO 0805/0807 VRB02KT 0800 FG FEW014

Stav a předpovědi počasí z více než 4 000 letišť (zprávy METAR a TAF).

Červené a žluté tečky na mapě představují dostupné meteorologické stanice.

Když kurzor umístíte na tečku, zobrazí se název stanice.

Pak kliknutím zobrazíte stav a předpověď počasí.

Chcete-li změnit mapu, kliknutím na zelené tlačítko se znaménkem +mapu přiblížíte, kliknutím na zelené tlačítko se znaménkem – mapu oddálíte a kliknutím na zelené šipky přejdete na sousední mapy.


METAR-TAF: